CO67 weather

Big View Airport
Carr, Colorado, United States

Public forecast

Using degrees Fahrenheit for public forecast. Weather courtesy of forecast.io.

METAR (pilot weather report)

Closest report is Northern Colorado Regional Airport, 19.1 nm (35.5 km) SSW. Retrieved 2019/08/18 04:56 UTC (48 minutes ago):

KFNL 180456Z AUTO 20006KT 10SM CLR 23/06 A2995 RMK AO2 RAB00E10 SLP072 P0000 T02280061

TAF (pilot weather forecast)

Forecast is more than 12 hours old.

Closest forecast is Cheyenne Regional Jerry Olson Field, 24.1 nm (44.6 km) NNE. Retrieved 2019/08/17 00:27 UTC (1 day ago):

TAF KCYS 172325Z 1800/1824 27020G40KT P6SM VCTS SCT110CB FM180200 28010KT P6SM FEW150 FM181600 22012G18KT P6SM SKC